sensor_id;sensor_type;location;lat;lon;timestamp;P1;durP1;ratioP1;P2;durP2;ratioP2
7047;SDS011;3565;53.254;10.352;2023-01-04T05:42:36;6.67;;;3.33;;
7047;SDS011;3565;53.254;10.352;2023-01-04T05:45:07;8.60;;;4.43;;
7047;SDS011;3565;53.254;10.352;2023-01-04T05:47:37;3.97;;;3.17;;
7047;SDS011;3565;53.254;10.352;2023-01-04T05:50:15;7.87;;;3.17;;
7047;SDS011;3565;53.254;10.352;2023-01-04T05:52:46;6.03;;;3.17;;
7047;SDS011;3565;53.254;10.352;2023-01-04T05:55:15;3.53;;;3.10;;
7047;SDS011;3565;53.254;10.352;2023-01-04T05:57:44;4.20;;;3.20;;
7047;SDS011;3565;53.254;10.352;2023-01-04T06:00:15;5.70;;;3.47;;
7047;SDS011;3565;53.254;10.352;2023-01-04T06:02:45;3.57;;;2.97;;
7047;SDS011;3565;53.254;10.352;2023-01-04T06:05:14;5.10;;;3.30;;
7047;SDS011;3565;53.254;10.352;2023-01-04T06:07:44;4.60;;;3.13;;
7047;SDS011;3565;53.254;10.352;2023-01-04T06:10:13;3.73;;;2.83;;
7047;SDS011;3565;53.254;10.352;2023-01-04T06:12:43;4.40;;;3.07;;
7047;SDS011;3565;53.254;10.352;2023-01-04T06:15:14;4.83;;;3.07;;
7047;SDS011;3565;53.254;10.352;2023-01-04T06:17:44;4.93;;;3.50;;
7047;SDS011;3565;53.254;10.352;2023-01-04T06:20:13;6.77;;;3.20;;
7047;SDS011;3565;53.254;10.352;2023-01-04T06:22:42;3.20;;;2.90;;
7047;SDS011;3565;53.254;10.352;2023-01-04T06:25:11;4.43;;;3.03;;
7047;SDS011;3565;53.254;10.352;2023-01-04T06:27:52;4.63;;;3.00;;
7047;SDS011;3565;53.254;10.352;2023-01-04T06:30:24;4.67;;;2.90;;
7047;SDS011;3565;53.254;10.352;2023-01-04T06:32:55;6.47;;;3.60;;
7047;SDS011;3565;53.254;10.352;2023-01-04T06:35:24;3.77;;;3.10;;
7047;SDS011;3565;53.254;10.352;2023-01-04T06:37:53;3.77;;;2.93;;
7047;SDS011;3565;53.254;10.352;2023-01-04T06:40:23;4.40;;;3.00;;
7047;SDS011;3565;53.254;10.352;2023-01-04T06:42:53;3.30;;;2.93;;
7047;SDS011;3565;53.254;10.352;2023-01-04T06:45:23;3.50;;;3.20;;
7047;SDS011;3565;53.254;10.352;2023-01-04T06:47:52;6.10;;;3.27;;
7047;SDS011;3565;53.254;10.352;2023-01-04T06:50:20;3.87;;;3.07;;
7047;SDS011;3565;53.254;10.352;2023-01-04T06:52:48;3.80;;;2.97;;
7047;SDS011;3565;53.254;10.352;2023-01-04T06:55:17;4.97;;;2.87;;
7047;SDS011;3565;53.254;10.352;2023-01-04T06:57:46;5.53;;;2.80;;
7047;SDS011;3565;53.254;10.352;2023-01-04T07:00:17;3.60;;;3.17;;
7047;SDS011;3565;53.254;10.352;2023-01-04T07:02:46;3.10;;;2.80;;
7047;SDS011;3565;53.254;10.352;2023-01-04T07:05:14;3.13;;;2.83;;
7047;SDS011;3565;53.254;10.352;2023-01-04T07:07:44;3.77;;;2.80;;
7047;SDS011;3565;53.254;10.352;2023-01-04T07:10:13;4.10;;;2.80;;
7047;SDS011;3565;53.254;10.352;2023-01-04T07:12:43;3.50;;;3.20;;
7047;SDS011;3565;53.254;10.352;2023-01-04T07:15:11;3.17;;;2.87;;
7047;SDS011;3565;53.254;10.352;2023-01-04T07:17:50;3.63;;;3.13;;
7047;SDS011;3565;53.254;10.352;2023-01-04T07:20:19;2.93;;;2.60;;
7047;SDS011;3565;53.254;10.352;2023-01-04T07:22:49;3.40;;;2.90;;
7047;SDS011;3565;53.254;10.352;2023-01-04T07:25:21;2.97;;;2.60;;
7047;SDS011;3565;53.254;10.352;2023-01-04T07:27:50;5.07;;;3.20;;
7047;SDS011;3565;53.254;10.352;2023-01-04T07:30:21;2.93;;;2.63;;
7047;SDS011;3565;53.254;10.352;2023-01-04T07:32:52;4.10;;;2.83;;
7047;SDS011;3565;53.254;10.352;2023-01-04T07:35:23;3.97;;;2.70;;
7047;SDS011;3565;53.254;10.352;2023-01-04T07:37:52;4.20;;;2.97;;
7047;SDS011;3565;53.254;10.352;2023-01-04T07:40:21;3.37;;;2.90;;
7047;SDS011;3565;53.254;10.352;2023-01-04T07:42:54;3.53;;;3.03;;
7047;SDS011;3565;53.254;10.352;2023-01-04T07:45:25;5.30;;;2.80;;
7047;SDS011;3565;53.254;10.352;2023-01-04T07:47:55;3.37;;;2.97;;
7047;SDS011;3565;53.254;10.352;2023-01-04T07:50:25;3.03;;;2.73;;
7047;SDS011;3565;53.254;10.352;2023-01-04T07:52:54;3.70;;;2.93;;
7047;SDS011;3565;53.254;10.352;2023-01-04T07:55:23;3.87;;;3.30;;
7047;SDS011;3565;53.254;10.352;2023-01-04T07:57:53;3.67;;;2.90;;
7047;SDS011;3565;53.254;10.352;2023-01-04T08:00:22;4.03;;;3.40;;
7047;SDS011;3565;53.254;10.352;2023-01-04T08:02:52;3.70;;;3.27;;
7047;SDS011;3565;53.254;10.352;2023-01-04T08:05:21;6.30;;;3.80;;
7047;SDS011;3565;53.254;10.352;2023-01-04T08:07:51;5.33;;;3.60;;
7047;SDS011;3565;53.254;10.352;2023-01-04T08:10:21;6.87;;;3.27;;
7047;SDS011;3565;53.254;10.352;2023-01-04T08:12:52;4.13;;;3.50;;
7047;SDS011;3565;53.254;10.352;2023-01-04T08:15:24;4.03;;;3.63;;
7047;SDS011;3565;53.254;10.352;2023-01-04T08:17:55;4.27;;;3.87;;
7047;SDS011;3565;53.254;10.352;2023-01-04T08:20:26;3.70;;;3.30;;
7047;SDS011;3565;53.254;10.352;2023-01-04T08:22:57;4.67;;;3.43;;
7047;SDS011;3565;53.254;10.352;2023-01-04T08:25:26;4.83;;;3.73;;
7047;SDS011;3565;53.254;10.352;2023-01-04T08:27:55;4.90;;;3.40;;
7047;SDS011;3565;53.254;10.352;2023-01-04T08:30:24;5.17;;;3.87;;
7047;SDS011;3565;53.254;10.352;2023-01-04T08:33:04;3.53;;;3.20;;
7047;SDS011;3565;53.254;10.352;2023-01-04T08:35:41;9.87;;;3.10;;
7047;SDS011;3565;53.254;10.352;2023-01-04T08:38:10;4.07;;;2.97;;
7047;SDS011;3565;53.254;10.352;2023-01-04T08:40:43;3.50;;;3.10;;
7047;SDS011;3565;53.254;10.352;2023-01-04T08:43:14;4.57;;;3.83;;
7047;SDS011;3565;53.254;10.352;2023-01-04T08:45:47;3.57;;;3.10;;
7047;SDS011;3565;53.254;10.352;2023-01-04T08:48:17;4.30;;;2.97;;
7047;SDS011;3565;53.254;10.352;2023-01-04T08:50:48;4.00;;;3.30;;
7047;SDS011;3565;53.254;10.352;2023-01-04T08:53:20;3.50;;;2.90;;
7047;SDS011;3565;53.254;10.352;2023-01-04T08:55:50;4.10;;;3.03;;
7047;SDS011;3565;53.254;10.352;2023-01-04T08:58:21;3.77;;;2.90;;
7047;SDS011;3565;53.254;10.352;2023-01-04T09:00:58;6.20;;;2.90;;
7047;SDS011;3565;53.254;10.352;2023-01-04T09:03:29;5.40;;;3.00;;
7047;SDS011;3565;53.254;10.352;2023-01-04T09:06:02;3.10;;;2.83;;
7047;SDS011;3565;53.254;10.352;2023-01-04T09:08:34;3.77;;;3.10;;
7047;SDS011;3565;53.254;10.352;2023-01-04T09:11:06;3.30;;;3.00;;
7047;SDS011;3565;53.254;10.352;2023-01-04T09:13:36;3.10;;;2.80;;
7047;SDS011;3565;53.254;10.352;2023-01-04T09:16:07;3.47;;;3.17;;
7047;SDS011;3565;53.254;10.352;2023-01-04T09:18:38;3.83;;;3.20;;
7047;SDS011;3565;53.254;10.352;2023-01-04T09:21:10;3.73;;;3.17;;
7047;SDS011;3565;53.254;10.352;2023-01-04T09:23:43;3.87;;;3.47;;
7047;SDS011;3565;53.254;10.352;2023-01-04T09:26:16;3.20;;;3.00;;
7047;SDS011;3565;53.254;10.352;2023-01-04T09:28:47;4.00;;;3.70;;
7047;SDS011;3565;53.254;10.352;2023-01-04T09:31:17;3.63;;;3.33;;
7047;SDS011;3565;53.254;10.352;2023-01-04T09:33:51;3.70;;;3.40;;
7047;SDS011;3565;53.254;10.352;2023-01-04T09:36:23;3.77;;;3.47;;
7047;SDS011;3565;53.254;10.352;2023-01-04T09:38:54;3.70;;;3.40;;
7047;SDS011;3565;53.254;10.352;2023-01-04T09:41:24;3.93;;;3.53;;
7047;SDS011;3565;53.254;10.352;2023-01-04T09:43:56;3.80;;;3.50;;
7047;SDS011;3565;53.254;10.352;2023-01-04T09:46:30;3.60;;;3.30;;
7047;SDS011;3565;53.254;10.352;2023-01-04T09:49:10;4.53;;;3.30;;
7047;SDS011;3565;53.254;10.352;2023-01-04T09:51:50;3.70;;;3.40;;
7047;SDS011;3565;53.254;10.352;2023-01-04T09:54:22;7.77;;;3.50;;
7047;SDS011;3565;53.254;10.352;2023-01-04T09:56:57;4.10;;;3.70;;
7047;SDS011;3565;53.254;10.352;2023-01-04T09:59:29;4.33;;;3.93;;
7047;SDS011;3565;53.254;10.352;2023-01-04T10:02:07;5.63;;;3.73;;
7047;SDS011;3565;53.254;10.352;2023-01-04T10:04:54;4.67;;;4.27;;
7047;SDS011;3565;53.254;10.352;2023-01-04T10:07:27;4.20;;;3.80;;
7047;SDS011;3565;53.254;10.352;2023-01-04T10:10:00;4.10;;;3.70;;
7047;SDS011;3565;53.254;10.352;2023-01-04T10:12:37;4.30;;;3.90;;
7047;SDS011;3565;53.254;10.352;2023-01-04T10:15:14;3.97;;;3.67;;
7047;SDS011;3565;53.254;10.352;2023-01-04T10:17:53;4.17;;;3.87;;
7047;SDS011;3565;53.254;10.352;2023-01-04T10:20:50;4.20;;;3.80;;
7047;SDS011;3565;53.254;10.352;2023-01-04T10:23:41;3.73;;;3.30;;
7047;SDS011;3565;53.254;10.352;2023-01-04T10:26:20;3.70;;;3.40;;
7047;SDS011;3565;53.254;10.352;2023-01-04T10:29:00;3.20;;;3.00;;
7047;SDS011;3565;53.254;10.352;2023-01-04T10:31:54;5.60;;;3.23;;
7047;SDS011;3565;53.254;10.352;2023-01-04T10:34:28;2.87;;;2.60;;
7047;SDS011;3565;53.254;10.352;2023-01-04T10:37:05;2.80;;;2.60;;
7047;SDS011;3565;53.254;10.352;2023-01-04T10:39:41;2.60;;;2.40;;
7047;SDS011;3565;53.254;10.352;2023-01-04T10:42:15;2.73;;;2.53;;
7047;SDS011;3565;53.254;10.352;2023-01-04T10:44:54;2.77;;;2.47;;
7047;SDS011;3565;53.254;10.352;2023-01-04T10:47:30;2.30;;;2.17;;
7047;SDS011;3565;53.254;10.352;2023-01-04T10:50:04;2.47;;;2.27;;
7047;SDS011;3565;53.254;10.352;2023-01-04T10:52:37;2.53;;;2.33;;
7047;SDS011;3565;53.254;10.352;2023-01-04T10:55:09;2.60;;;2.40;;
7047;SDS011;3565;53.254;10.352;2023-01-04T10:57:50;2.63;;;2.43;;
7047;SDS011;3565;53.254;10.352;2023-01-04T11:00:27;2.60;;;2.40;;
7047;SDS011;3565;53.254;10.352;2023-01-04T11:03:00;2.60;;;2.40;;
7047;SDS011;3565;53.254;10.352;2023-01-04T11:05:32;2.43;;;2.23;;
7047;SDS011;3565;53.254;10.352;2023-01-04T11:08:07;2.63;;;2.43;;
7047;SDS011;3565;53.254;10.352;2023-01-04T11:10:39;3.20;;;2.90;;
7047;SDS011;3565;53.254;10.352;2023-01-04T11:13:10;2.83;;;2.63;;
7047;SDS011;3565;53.254;10.352;2023-01-04T11:15:42;2.90;;;2.40;;
7047;SDS011;3565;53.254;10.352;2023-01-04T11:18:13;2.80;;;2.60;;
7047;SDS011;3565;53.254;10.352;2023-01-04T11:20:43;2.77;;;2.57;;
7047;SDS011;3565;53.254;10.352;2023-01-04T11:23:14;2.50;;;2.30;;
7047;SDS011;3565;53.254;10.352;2023-01-04T11:25:45;2.70;;;2.50;;
7047;SDS011;3565;53.254;10.352;2023-01-04T11:28:18;2.77;;;2.50;;
7047;SDS011;3565;53.254;10.352;2023-01-04T11:30:59;2.83;;;2.63;;
7047;SDS011;3565;53.254;10.352;2023-01-04T11:33:31;2.90;;;2.70;;
7047;SDS011;3565;53.254;10.352;2023-01-04T11:36:30;2.60;;;2.40;;
7047;SDS011;3565;53.254;10.352;2023-01-04T11:39:03;2.60;;;2.40;;
7047;SDS011;3565;53.254;10.352;2023-01-04T11:41:35;2.60;;;2.33;;
7047;SDS011;3565;53.254;10.352;2023-01-04T11:44:05;3.20;;;2.43;;
7047;SDS011;3565;53.254;10.352;2023-01-04T11:46:38;4.17;;;2.37;;
7047;SDS011;3565;53.254;10.352;2023-01-04T11:49:10;2.33;;;2.23;;
7047;SDS011;3565;53.254;10.352;2023-01-04T11:51:48;2.20;;;2.10;;
7047;SDS011;3565;53.254;10.352;2023-01-04T11:54:18;2.23;;;2.13;;
7047;SDS011;3565;53.254;10.352;2023-01-04T11:57:00;2.30;;;2.20;;
7047;SDS011;3565;53.254;10.352;2023-01-04T11:59:33;2.20;;;2.10;;
7047;SDS011;3565;53.254;10.352;2023-01-04T12:02:16;2.00;;;1.90;;
7047;SDS011;3565;53.254;10.352;2023-01-04T12:04:51;2.30;;;2.20;;
7047;SDS011;3565;53.254;10.352;2023-01-04T12:10:14;2.60;;;2.40;;
7047;SDS011;3565;53.254;10.352;2023-01-04T12:12:45;2.40;;;2.20;;
7047;SDS011;3565;53.254;10.352;2023-01-04T12:15:15;2.20;;;2.10;;
7047;SDS011;3565;53.254;10.352;2023-01-04T12:17:51;2.40;;;2.07;;
7047;SDS011;3565;53.254;10.352;2023-01-04T12:20:23;2.10;;;2.00;;
7047;SDS011;3565;53.254;10.352;2023-01-04T12:22:58;2.30;;;2.20;;
7047;SDS011;3565;53.254;10.352;2023-01-04T12:28:05;2.23;;;2.13;;
7047;SDS011;3565;53.254;10.352;2023-01-04T12:30:43;2.60;;;2.40;;
7047;SDS011;3565;53.254;10.352;2023-01-04T12:39:02;2.63;;;2.43;;
7047;SDS011;3565;53.254;10.352;2023-01-04T12:45:02;2.03;;;1.93;;
7047;SDS011;3565;53.254;10.352;2023-01-04T12:47:49;2.63;;;2.37;;
7047;SDS011;3565;53.254;10.352;2023-01-04T12:53:54;2.13;;;2.03;;
7047;SDS011;3565;53.254;10.352;2023-01-04T12:59:33;2.40;;;2.20;;
7047;SDS011;3565;53.254;10.352;2023-01-04T13:02:17;2.30;;;2.10;;
7047;SDS011;3565;53.254;10.352;2023-01-04T13:04:50;2.10;;;2.00;;
7047;SDS011;3565;53.254;10.352;2023-01-04T13:07:23;2.40;;;2.20;;
7047;SDS011;3565;53.254;10.352;2023-01-04T13:10:17;2.50;;;2.30;;
7047;SDS011;3565;53.254;10.352;2023-01-04T13:12:54;2.50;;;2.30;;
7047;SDS011;3565;53.254;10.352;2023-01-04T13:15:40;2.47;;;1.97;;
7047;SDS011;3565;53.254;10.352;2023-01-04T13:18:28;2.00;;;1.90;;
7047;SDS011;3565;53.254;10.352;2023-01-04T13:21:11;2.20;;;2.00;;
7047;SDS011;3565;53.254;10.352;2023-01-04T13:23:48;2.67;;;2.10;;
7047;SDS011;3565;53.254;10.352;2023-01-04T13:29:24;2.20;;;2.10;;
7047;SDS011;3565;53.254;10.352;2023-01-04T13:31:58;2.13;;;1.90;;
7047;SDS011;3565;53.254;10.352;2023-01-04T13:34:29;2.23;;;2.10;;
7047;SDS011;3565;53.254;10.352;2023-01-04T13:37:10;2.27;;;2.00;;
7047;SDS011;3565;53.254;10.352;2023-01-04T13:39:51;2.03;;;1.93;;
7047;SDS011;3565;53.254;10.352;2023-01-04T13:42:35;2.27;;;2.17;;
7047;SDS011;3565;53.254;10.352;2023-01-04T13:48:16;1.60;;;1.50;;
7047;SDS011;3565;53.254;10.352;2023-01-04T13:51:04;1.97;;;1.87;;
7047;SDS011;3565;53.254;10.352;2023-01-04T13:53:58;1.67;;;1.57;;
7047;SDS011;3565;53.254;10.352;2023-01-04T13:56:29;1.80;;;1.70;;
7047;SDS011;3565;53.254;10.352;2023-01-04T13:59:03;2.10;;;2.00;;
7047;SDS011;3565;53.254;10.352;2023-01-04T14:01:39;2.10;;;2.00;;
7047;SDS011;3565;53.254;10.352;2023-01-04T14:04:13;2.37;;;2.17;;
7047;SDS011;3565;53.254;10.352;2023-01-04T14:06:45;1.73;;;1.63;;
7047;SDS011;3565;53.254;10.352;2023-01-04T14:09:17;1.80;;;1.70;;
7047;SDS011;3565;53.254;10.352;2023-01-04T14:11:53;2.60;;;1.90;;
7047;SDS011;3565;53.254;10.352;2023-01-04T14:14:45;2.40;;;2.20;;
7047;SDS011;3565;53.254;10.352;2023-01-04T14:20:32;2.60;;;2.40;;
7047;SDS011;3565;53.254;10.352;2023-01-04T14:23:03;2.40;;;2.20;;
7047;SDS011;3565;53.254;10.352;2023-01-04T14:28:18;3.03;;;2.37;;
7047;SDS011;3565;53.254;10.352;2023-01-04T14:31:11;2.63;;;2.43;;
7047;SDS011;3565;53.254;10.352;2023-01-04T14:33:47;2.90;;;2.70;;
7047;SDS011;3565;53.254;10.352;2023-01-04T14:36:20;2.30;;;2.10;;
7047;SDS011;3565;53.254;10.352;2023-01-04T14:38:55;2.93;;;2.63;;
7047;SDS011;3565;53.254;10.352;2023-01-04T14:41:51;2.27;;;2.10;;
7047;SDS011;3565;53.254;10.352;2023-01-04T14:44:25;2.50;;;2.30;;
7047;SDS011;3565;53.254;10.352;2023-01-04T14:46:58;2.27;;;2.07;;
7047;SDS011;3565;53.254;10.352;2023-01-04T14:49:31;2.00;;;1.90;;
7047;SDS011;3565;53.254;10.352;2023-01-04T14:52:07;2.20;;;2.00;;
7047;SDS011;3565;53.254;10.352;2023-01-04T14:54:41;1.90;;;1.80;;
7047;SDS011;3565;53.254;10.352;2023-01-04T14:57:11;2.00;;;1.80;;
7047;SDS011;3565;53.254;10.352;2023-01-04T14:59:40;2.10;;;1.90;;
7047;SDS011;3565;53.254;10.352;2023-01-04T15:02:11;1.70;;;1.60;;
7047;SDS011;3565;53.254;10.352;2023-01-04T15:04:42;1.80;;;1.70;;
7047;SDS011;3565;53.254;10.352;2023-01-04T15:07:24;2.30;;;2.10;;
7047;SDS011;3565;53.254;10.352;2023-01-04T15:10:02;1.83;;;1.73;;
7047;SDS011;3565;53.254;10.352;2023-01-04T15:12:42;2.60;;;1.93;;
7047;SDS011;3565;53.254;10.352;2023-01-04T15:15:13;3.30;;;2.07;;
7047;SDS011;3565;53.254;10.352;2023-01-04T15:17:43;2.20;;;2.00;;
7047;SDS011;3565;53.254;10.352;2023-01-04T15:20:15;2.13;;;1.87;;
7047;SDS011;3565;53.254;10.352;2023-01-04T15:22:45;1.70;;;1.60;;
7047;SDS011;3565;53.254;10.352;2023-01-04T15:25:17;2.10;;;1.80;;
7047;SDS011;3565;53.254;10.352;2023-01-04T15:27:48;2.67;;;1.97;;
7047;SDS011;3565;53.254;10.352;2023-01-04T15:30:20;1.90;;;1.80;;
7047;SDS011;3565;53.254;10.352;2023-01-04T15:32:49;2.23;;;1.70;;
7047;SDS011;3565;53.254;10.352;2023-01-04T15:35:20;3.73;;;2.00;;
7047;SDS011;3565;53.254;10.352;2023-01-04T15:37:50;2.70;;;1.50;;
7047;SDS011;3565;53.254;10.352;2023-01-04T15:40:19;2.93;;;1.63;;
7047;SDS011;3565;53.254;10.352;2023-01-04T15:45:34;3.13;;;1.80;;
7047;SDS011;3565;53.254;10.352;2023-01-04T15:48:03;3.63;;;2.10;;
7047;SDS011;3565;53.254;10.352;2023-01-04T15:50:38;3.47;;;2.20;;
7047;SDS011;3565;53.254;10.352;2023-01-04T15:53:08;3.70;;;2.10;;
7047;SDS011;3565;53.254;10.352;2023-01-04T15:55:47;6.33;;;2.73;;
7047;SDS011;3565;53.254;10.352;2023-01-04T15:58:19;4.93;;;2.33;;
7047;SDS011;3565;53.254;10.352;2023-01-04T16:00:50;2.50;;;2.20;;
7047;SDS011;3565;53.254;10.352;2023-01-04T16:03:20;4.40;;;2.57;;
7047;SDS011;3565;53.254;10.352;2023-01-04T16:05:51;6.70;;;2.30;;
7047;SDS011;3565;53.254;10.352;2023-01-04T16:08:34;4.67;;;2.57;;
7047;SDS011;3565;53.254;10.352;2023-01-04T16:11:07;10.67;;;2.70;;
7047;SDS011;3565;53.254;10.352;2023-01-04T16:13:50;6.60;;;2.60;;
7047;SDS011;3565;53.254;10.352;2023-01-04T16:16:21;6.27;;;2.50;;
7047;SDS011;3565;53.254;10.352;2023-01-04T16:18:53;5.43;;;2.70;;
7047;SDS011;3565;53.254;10.352;2023-01-04T16:21:25;4.27;;;2.70;;
7047;SDS011;3565;53.254;10.352;2023-01-04T16:23:58;4.57;;;2.47;;
7047;SDS011;3565;53.254;10.352;2023-01-04T16:26:30;5.27;;;2.50;;
7047;SDS011;3565;53.254;10.352;2023-01-04T16:29:12;5.00;;;2.70;;
7047;SDS011;3565;53.254;10.352;2023-01-04T16:31:59;3.03;;;2.40;;
7047;SDS011;3565;53.254;10.352;2023-01-04T16:34:33;5.67;;;3.00;;
7047;SDS011;3565;53.254;10.352;2023-01-04T16:37:03;5.00;;;2.50;;
7047;SDS011;3565;53.254;10.352;2023-01-04T16:39:31;4.73;;;2.30;;
7047;SDS011;3565;53.254;10.352;2023-01-04T16:42:02;4.87;;;2.70;;
7047;SDS011;3565;53.254;10.352;2023-01-04T16:44:35;9.50;;;3.00;;
7047;SDS011;3565;53.254;10.352;2023-01-04T16:47:06;7.70;;;3.03;;
7047;SDS011;3565;53.254;10.352;2023-01-04T16:49:37;8.73;;;3.07;;
7047;SDS011;3565;53.254;10.352;2023-01-04T16:52:17;3.60;;;2.40;;
7047;SDS011;3565;53.254;10.352;2023-01-04T16:54:48;7.53;;;2.90;;
7047;SDS011;3565;53.254;10.352;2023-01-04T16:57:19;6.43;;;3.33;;
7047;SDS011;3565;53.254;10.352;2023-01-04T16:59:49;5.93;;;3.10;;
7047;SDS011;3565;53.254;10.352;2023-01-04T17:02:19;5.37;;;2.63;;
7047;SDS011;3565;53.254;10.352;2023-01-04T17:04:49;7.73;;;3.07;;
7047;SDS011;3565;53.254;10.352;2023-01-04T17:07:21;8.10;;;2.90;;
7047;SDS011;3565;53.254;10.352;2023-01-04T17:09:52;6.13;;;2.57;;
7047;SDS011;3565;53.254;10.352;2023-01-04T17:12:22;11.47;;;3.33;;
7047;SDS011;3565;53.254;10.352;2023-01-04T17:14:52;8.13;;;2.93;;
7047;SDS011;3565;53.254;10.352;2023-01-04T17:17:22;7.43;;;3.20;;
7047;SDS011;3565;53.254;10.352;2023-01-04T17:19:51;9.27;;;2.90;;
7047;SDS011;3565;53.254;10.352;2023-01-04T17:22:22;8.60;;;3.63;;
7047;SDS011;3565;53.254;10.352;2023-01-04T17:24:52;7.13;;;2.83;;
7047;SDS011;3565;53.254;10.352;2023-01-04T17:27:23;6.57;;;2.63;;
7047;SDS011;3565;53.254;10.352;2023-01-04T17:30:02;9.90;;;2.80;;
7047;SDS011;3565;53.254;10.352;2023-01-04T17:32:32;9.43;;;3.20;;
7047;SDS011;3565;53.254;10.352;2023-01-04T17:35:02;7.60;;;3.20;;
7047;SDS011;3565;53.254;10.352;2023-01-04T17:37:33;8.43;;;2.97;;
7047;SDS011;3565;53.254;10.352;2023-01-04T17:40:05;7.70;;;3.03;;
7047;SDS011;3565;53.254;10.352;2023-01-04T17:42:36;8.73;;;3.40;;
7047;SDS011;3565;53.254;10.352;2023-01-04T17:47:45;9.83;;;3.20;;
7047;SDS011;3565;53.254;10.352;2023-01-04T17:50:15;10.13;;;3.40;;
7047;SDS011;3565;53.254;10.352;2023-01-04T17:52:46;11.50;;;3.60;;
7047;SDS011;3565;53.254;10.352;2023-01-04T17:55:18;10.47;;;3.53;;
7047;SDS011;3565;53.254;10.352;2023-01-04T17:57:48;7.97;;;3.63;;
7047;SDS011;3565;53.254;10.352;2023-01-04T18:00:17;9.30;;;3.40;;
7047;SDS011;3565;53.254;10.352;2023-01-04T18:02:49;12.43;;;3.87;;
7047;SDS011;3565;53.254;10.352;2023-01-04T18:05:18;11.93;;;4.00;;
7047;SDS011;3565;53.254;10.352;2023-01-04T18:07:48;15.03;;;4.30;;
7047;SDS011;3565;53.254;10.352;2023-01-04T18:10:19;11.97;;;3.70;;
7047;SDS011;3565;53.254;10.352;2023-01-04T18:12:49;12.53;;;3.93;;
7047;SDS011;3565;53.254;10.352;2023-01-04T18:17:56;10.47;;;4.23;;
7047;SDS011;3565;53.254;10.352;2023-01-04T18:20:26;17.53;;;4.40;;
7047;SDS011;3565;53.254;10.352;2023-01-04T18:22:56;12.20;;;3.97;;
7047;SDS011;3565;53.254;10.352;2023-01-04T18:25:25;16.87;;;4.17;;
7047;SDS011;3565;53.254;10.352;2023-01-04T18:27:54;12.50;;;5.00;;
7047;SDS011;3565;53.254;10.352;2023-01-04T18:30:24;12.97;;;4.30;;
7047;SDS011;3565;53.254;10.352;2023-01-04T18:32:53;15.43;;;4.87;;
7047;SDS011;3565;53.254;10.352;2023-01-04T18:35:23;10.63;;;3.70;;
7047;SDS011;3565;53.254;10.352;2023-01-04T18:37:53;12.53;;;4.03;;
7047;SDS011;3565;53.254;10.352;2023-01-04T18:40:22;8.50;;;3.40;;
7047;SDS011;3565;53.254;10.352;2023-01-04T18:42:53;12.67;;;4.03;;
7047;SDS011;3565;53.254;10.352;2023-01-04T18:45:24;7.63;;;3.20;;
7047;SDS011;3565;53.254;10.352;2023-01-04T18:50:31;10.03;;;3.30;;
7047;SDS011;3565;53.254;10.352;2023-01-04T18:53:01;10.07;;;4.00;;
7047;SDS011;3565;53.254;10.352;2023-01-04T18:55:30;12.23;;;3.67;;
7047;SDS011;3565;53.254;10.352;2023-01-04T18:58:00;14.30;;;3.77;;
7047;SDS011;3565;53.254;10.352;2023-01-04T19:00:30;16.23;;;4.07;;
7047;SDS011;3565;53.254;10.352;2023-01-04T19:03:00;11.60;;;3.67;;
7047;SDS011;3565;53.254;10.352;2023-01-04T19:05:31;17.00;;;4.07;;
7047;SDS011;3565;53.254;10.352;2023-01-04T19:08:00;14.97;;;4.00;;
7047;SDS011;3565;53.254;10.352;2023-01-04T19:10:30;13.67;;;4.33;;
7047;SDS011;3565;53.254;10.352;2023-01-04T19:13:01;12.70;;;3.60;;
7047;SDS011;3565;53.254;10.352;2023-01-04T19:15:29;14.40;;;3.80;;
7047;SDS011;3565;53.254;10.352;2023-01-04T19:18:08;11.57;;;3.90;;
7047;SDS011;3565;53.254;10.352;2023-01-04T19:20:38;13.83;;;4.70;;
7047;SDS011;3565;53.254;10.352;2023-01-04T19:23:07;14.37;;;3.73;;
7047;SDS011;3565;53.254;10.352;2023-01-04T19:25:38;11.00;;;3.50;;
7047;SDS011;3565;53.254;10.352;2023-01-04T19:28:08;11.93;;;4.03;;
7047;SDS011;3565;53.254;10.352;2023-01-04T19:30:39;13.33;;;3.90;;
7047;SDS011;3565;53.254;10.352;2023-01-04T19:33:21;9.63;;;3.70;;
7047;SDS011;3565;53.254;10.352;2023-01-04T19:35:53;11.67;;;3.70;;
7047;SDS011;3565;53.254;10.352;2023-01-04T19:41:01;15.97;;;4.30;;
7047;SDS011;3565;53.254;10.352;2023-01-04T19:43:32;16.37;;;6.07;;
7047;SDS011;3565;53.254;10.352;2023-01-04T19:46:07;13.50;;;4.97;;
7047;SDS011;3565;53.254;10.352;2023-01-04T19:48:38;16.70;;;5.60;;
7047;SDS011;3565;53.254;10.352;2023-01-04T19:51:09;11.87;;;2.80;;
7047;SDS011;3565;53.254;10.352;2023-01-04T19:53:41;9.83;;;2.80;;
7047;SDS011;3565;53.254;10.352;2023-01-04T19:56:12;6.70;;;2.47;;
7047;SDS011;3565;53.254;10.352;2023-01-04T20:01:20;6.80;;;2.80;;
7047;SDS011;3565;53.254;10.352;2023-01-04T20:03:50;9.17;;;2.63;;
7047;SDS011;3565;53.254;10.352;2023-01-04T20:09:01;6.93;;;2.97;;
7047;SDS011;3565;53.254;10.352;2023-01-04T20:11:31;8.53;;;3.47;;
7047;SDS011;3565;53.254;10.352;2023-01-04T20:14:01;12.23;;;3.23;;
7047;SDS011;3565;53.254;10.352;2023-01-04T20:16:41;10.20;;;3.60;;
7047;SDS011;3565;53.254;10.352;2023-01-04T20:19:10;10.87;;;3.40;;
7047;SDS011;3565;53.254;10.352;2023-01-04T20:21:39;9.27;;;3.40;;
7047;SDS011;3565;53.254;10.352;2023-01-04T20:24:11;7.93;;;2.70;;
7047;SDS011;3565;53.254;10.352;2023-01-04T20:26:55;6.83;;;2.40;;
7047;SDS011;3565;53.254;10.352;2023-01-04T20:29:26;5.70;;;2.40;;
7047;SDS011;3565;53.254;10.352;2023-01-04T20:31:57;6.03;;;2.20;;
7047;SDS011;3565;53.254;10.352;2023-01-04T20:34:29;8.43;;;2.10;;
7047;SDS011;3565;53.254;10.352;2023-01-04T20:37:01;6.37;;;2.00;;
7047;SDS011;3565;53.254;10.352;2023-01-04T20:39:33;5.60;;;2.27;;
7047;SDS011;3565;53.254;10.352;2023-01-04T20:42:03;4.97;;;2.10;;
7047;SDS011;3565;53.254;10.352;2023-01-04T20:44:50;4.73;;;2.00;;
7047;SDS011;3565;53.254;10.352;2023-01-04T20:47:19;3.23;;;1.97;;
7047;SDS011;3565;53.254;10.352;2023-01-04T20:49:50;4.97;;;2.00;;
7047;SDS011;3565;53.254;10.352;2023-01-04T20:52:19;6.73;;;2.50;;
7047;SDS011;3565;53.254;10.352;2023-01-04T20:54:49;3.83;;;1.90;;
7047;SDS011;3565;53.254;10.352;2023-01-04T20:57:18;3.00;;;1.60;;
7047;SDS011;3565;53.254;10.352;2023-01-04T20:59:48;3.13;;;1.73;;
7047;SDS011;3565;53.254;10.352;2023-01-04T21:02:17;3.73;;;2.20;;
7047;SDS011;3565;53.254;10.352;2023-01-04T21:04:48;5.80;;;2.13;;
7047;SDS011;3565;53.254;10.352;2023-01-04T21:07:18;4.67;;;1.73;;
7047;SDS011;3565;53.254;10.352;2023-01-04T21:09:49;4.90;;;2.17;;
7047;SDS011;3565;53.254;10.352;2023-01-04T21:12:18;5.93;;;2.00;;
7047;SDS011;3565;53.254;10.352;2023-01-04T21:14:50;2.50;;;1.93;;
7047;SDS011;3565;53.254;10.352;2023-01-04T21:17:19;4.23;;;2.07;;
7047;SDS011;3565;53.254;10.352;2023-01-04T21:19:49;5.83;;;2.20;;
7047;SDS011;3565;53.254;10.352;2023-01-04T21:22:19;4.30;;;2.47;;
7047;SDS011;3565;53.254;10.352;2023-01-04T21:24:49;6.80;;;2.63;;
7047;SDS011;3565;53.254;10.352;2023-01-04T21:27:18;7.00;;;2.73;;
7047;SDS011;3565;53.254;10.352;2023-01-04T21:29:52;6.50;;;2.43;;
7047;SDS011;3565;53.254;10.352;2023-01-04T21:32:22;6.37;;;2.30;;
7047;SDS011;3565;53.254;10.352;2023-01-04T21:34:56;8.97;;;3.17;;
7047;SDS011;3565;53.254;10.352;2023-01-04T21:37:27;8.90;;;2.80;;
7047;SDS011;3565;53.254;10.352;2023-01-04T21:40:08;6.70;;;2.67;;
7047;SDS011;3565;53.254;10.352;2023-01-04T21:42:38;10.80;;;3.67;;
7047;SDS011;3565;53.254;10.352;2023-01-04T21:45:08;9.20;;;2.60;;
7047;SDS011;3565;53.254;10.352;2023-01-04T21:47:37;8.30;;;3.10;;
7047;SDS011;3565;53.254;10.352;2023-01-04T21:50:16;8.80;;;3.10;;
7047;SDS011;3565;53.254;10.352;2023-01-04T21:52:47;8.43;;;3.53;;
7047;SDS011;3565;53.254;10.352;2023-01-04T21:55:18;10.40;;;3.07;;
7047;SDS011;3565;53.254;10.352;2023-01-04T21:57:47;6.50;;;2.80;;
7047;SDS011;3565;53.254;10.352;2023-01-04T22:00:18;10.07;;;2.90;;
7047;SDS011;3565;53.254;10.352;2023-01-04T22:02:47;13.43;;;3.40;;
7047;SDS011;3565;53.254;10.352;2023-01-04T22:07:54;9.07;;;3.43;;
7047;SDS011;3565;53.254;10.352;2023-01-04T22:10:34;11.13;;;3.37;;